sensor_id;sensor_type;location;lat;lon;timestamp;temperature;humidity
30534;DHT22;17318;52.390;9.754;2022-11-24T00:01:20;9.20;99.90
30534;DHT22;17318;52.390;9.754;2022-11-24T00:03:52;9.20;99.90
30534;DHT22;17318;52.390;9.754;2022-11-24T00:06:18;9.20;99.90
30534;DHT22;17318;52.390;9.754;2022-11-24T00:08:45;9.20;99.90
30534;DHT22;17318;52.390;9.754;2022-11-24T00:11:19;9.20;99.90
30534;DHT22;17318;52.390;9.754;2022-11-24T00:13:45;9.20;99.90
30534;DHT22;17318;52.390;9.754;2022-11-24T00:16:16;9.20;99.90
30534;DHT22;17318;52.390;9.754;2022-11-24T00:18:43;9.20;99.90
30534;DHT22;17318;52.390;9.754;2022-11-24T00:21:10;9.10;99.90
30534;DHT22;17318;52.390;9.754;2022-11-24T00:23:36;9.20;99.90
30534;DHT22;17318;52.390;9.754;2022-11-24T00:26:07;9.10;99.90
30534;DHT22;17318;52.390;9.754;2022-11-24T00:28:34;9.20;99.90
30534;DHT22;17318;52.390;9.754;2022-11-24T00:31:01;9.10;99.90
30534;DHT22;17318;52.390;9.754;2022-11-24T00:33:27;9.10;99.90
30534;DHT22;17318;52.390;9.754;2022-11-24T00:35:57;9.10;99.90
30534;DHT22;17318;52.390;9.754;2022-11-24T00:38:24;9.10;99.90
30534;DHT22;17318;52.390;9.754;2022-11-24T00:40:50;9.00;99.90
30534;DHT22;17318;52.390;9.754;2022-11-24T00:43:17;9.00;99.90
30534;DHT22;17318;52.390;9.754;2022-11-24T00:45:42;8.90;99.90
30534;DHT22;17318;52.390;9.754;2022-11-24T00:48:08;9.00;99.90
30534;DHT22;17318;52.390;9.754;2022-11-24T00:50:34;8.90;99.90
30534;DHT22;17318;52.390;9.754;2022-11-24T00:53:00;8.90;99.90
30534;DHT22;17318;52.390;9.754;2022-11-24T00:55:26;8.90;99.90
30534;DHT22;17318;52.390;9.754;2022-11-24T00:57:54;8.80;99.90
30534;DHT22;17318;52.390;9.754;2022-11-24T01:00:20;8.80;99.90
30534;DHT22;17318;52.390;9.754;2022-11-24T01:02:46;8.80;99.90
30534;DHT22;17318;52.390;9.754;2022-11-24T01:05:11;8.80;99.90
30534;DHT22;17318;52.390;9.754;2022-11-24T01:07:37;8.80;99.90
30534;DHT22;17318;52.390;9.754;2022-11-24T01:10:03;8.70;99.90
30534;DHT22;17318;52.390;9.754;2022-11-24T01:12:29;8.70;99.90
30534;DHT22;17318;52.390;9.754;2022-11-24T01:14:55;8.70;99.90
30534;DHT22;17318;52.390;9.754;2022-11-24T01:17:22;8.70;99.90
30534;DHT22;17318;52.390;9.754;2022-11-24T01:19:48;8.70;99.90
30534;DHT22;17318;52.390;9.754;2022-11-24T01:22:14;8.70;99.90
30534;DHT22;17318;52.390;9.754;2022-11-24T01:24:40;8.70;99.90
30534;DHT22;17318;52.390;9.754;2022-11-24T01:27:06;8.80;99.90
30534;DHT22;17318;52.390;9.754;2022-11-24T01:29:32;8.80;99.90
30534;DHT22;17318;52.390;9.754;2022-11-24T01:31:57;8.80;99.90
30534;DHT22;17318;52.390;9.754;2022-11-24T01:34:23;8.80;99.90
30534;DHT22;17318;52.390;9.754;2022-11-24T01:36:49;8.80;99.90
30534;DHT22;17318;52.390;9.754;2022-11-24T01:39:14;8.70;99.90
30534;DHT22;17318;52.390;9.754;2022-11-24T01:41:40;8.80;99.90
30534;DHT22;17318;52.390;9.754;2022-11-24T01:44:32;8.80;99.90
30534;DHT22;17318;52.390;9.754;2022-11-24T01:47:03;8.80;99.90
30534;DHT22;17318;52.390;9.754;2022-11-24T01:49:48;8.80;99.90
30534;DHT22;17318;52.390;9.754;2022-11-24T01:52:24;8.80;99.90
30534;DHT22;17318;52.390;9.754;2022-11-24T01:54:55;8.80;99.90
30534;DHT22;17318;52.390;9.754;2022-11-24T01:57:30;8.70;99.90
30534;DHT22;17318;52.390;9.754;2022-11-24T02:00:06;8.70;99.90
30534;DHT22;17318;52.390;9.754;2022-11-24T02:02:32;8.70;99.90
30534;DHT22;17318;52.390;9.754;2022-11-24T02:05:03;8.70;99.90
30534;DHT22;17318;52.390;9.754;2022-11-24T02:07:29;8.70;99.90
30534;DHT22;17318;52.390;9.754;2022-11-24T02:09:59;8.70;99.90
30534;DHT22;17318;52.390;9.754;2022-11-24T02:12:26;8.70;99.90
30534;DHT22;17318;52.390;9.754;2022-11-24T02:14:53;8.70;99.90
30534;DHT22;17318;52.390;9.754;2022-11-24T02:17:21;8.70;99.90
30534;DHT22;17318;52.390;9.754;2022-11-24T02:19:59;8.80;99.90
30534;DHT22;17318;52.390;9.754;2022-11-24T02:27:53;8.80;99.90
30534;DHT22;17318;52.390;9.754;2022-11-24T02:30:20;8.80;99.90
30534;DHT22;17318;52.390;9.754;2022-11-24T02:32:46;8.80;99.90
30534;DHT22;17318;52.390;9.754;2022-11-24T02:35:12;8.80;99.90
30534;DHT22;17318;52.390;9.754;2022-11-24T02:37:38;8.90;99.90
30534;DHT22;17318;52.390;9.754;2022-11-24T02:40:04;8.90;99.90
30534;DHT22;17318;52.390;9.754;2022-11-24T02:42:35;8.80;99.90
30534;DHT22;17318;52.390;9.754;2022-11-24T02:45:03;8.80;99.90
30534;DHT22;17318;52.390;9.754;2022-11-24T02:47:29;8.90;99.90
30534;DHT22;17318;52.390;9.754;2022-11-24T02:49:54;8.90;99.90
30534;DHT22;17318;52.390;9.754;2022-11-24T02:52:20;8.90;99.90
30534;DHT22;17318;52.390;9.754;2022-11-24T02:54:46;9.00;99.90
30534;DHT22;17318;52.390;9.754;2022-11-24T02:57:11;9.10;99.90
30534;DHT22;17318;52.390;9.754;2022-11-24T02:59:37;9.10;99.90
30534;DHT22;17318;52.390;9.754;2022-11-24T03:02:03;9.10;99.90
30534;DHT22;17318;52.390;9.754;2022-11-24T03:04:29;9.10;99.90
30534;DHT22;17318;52.390;9.754;2022-11-24T03:06:54;9.00;99.90
30534;DHT22;17318;52.390;9.754;2022-11-24T03:09:20;9.10;99.90
30534;DHT22;17318;52.390;9.754;2022-11-24T03:11:46;9.10;99.90
30534;DHT22;17318;52.390;9.754;2022-11-24T03:14:12;9.20;99.90
30534;DHT22;17318;52.390;9.754;2022-11-24T03:16:37;9.20;99.90
30534;DHT22;17318;52.390;9.754;2022-11-24T03:19:03;9.20;99.90
30534;DHT22;17318;52.390;9.754;2022-11-24T03:21:29;9.20;99.90
30534;DHT22;17318;52.390;9.754;2022-11-24T03:23:55;9.20;99.90
30534;DHT22;17318;52.390;9.754;2022-11-24T03:26:22;9.20;99.90
30534;DHT22;17318;52.390;9.754;2022-11-24T03:28:48;9.20;99.90
30534;DHT22;17318;52.390;9.754;2022-11-24T03:31:14;9.20;99.90
30534;DHT22;17318;52.390;9.754;2022-11-24T03:33:40;9.20;99.90
30534;DHT22;17318;52.390;9.754;2022-11-24T03:36:06;9.20;99.90
30534;DHT22;17318;52.390;9.754;2022-11-24T03:38:32;9.20;99.90
30534;DHT22;17318;52.390;9.754;2022-11-24T03:40:58;9.20;99.90
30534;DHT22;17318;52.390;9.754;2022-11-24T03:43:24;9.20;99.90
30534;DHT22;17318;52.390;9.754;2022-11-24T03:45:50;9.20;99.90
30534;DHT22;17318;52.390;9.754;2022-11-24T03:48:17;9.20;99.90
30534;DHT22;17318;52.390;9.754;2022-11-24T03:50:55;9.20;99.90
30534;DHT22;17318;52.390;9.754;2022-11-24T03:53:22;9.20;99.90
30534;DHT22;17318;52.390;9.754;2022-11-24T03:55:48;9.20;99.90
30534;DHT22;17318;52.390;9.754;2022-11-24T03:58:14;9.20;99.90
30534;DHT22;17318;52.390;9.754;2022-11-24T04:00:40;9.20;99.90
30534;DHT22;17318;52.390;9.754;2022-11-24T04:03:05;9.30;99.90
30534;DHT22;17318;52.390;9.754;2022-11-24T04:05:31;9.20;99.90
30534;DHT22;17318;52.390;9.754;2022-11-24T04:07:58;9.30;99.90
30534;DHT22;17318;52.390;9.754;2022-11-24T04:10:27;9.20;99.90
30534;DHT22;17318;52.390;9.754;2022-11-24T04:12:53;9.20;99.90
30534;DHT22;17318;52.390;9.754;2022-11-24T04:15:19;9.20;99.90
30534;DHT22;17318;52.390;9.754;2022-11-24T04:17:46;9.30;99.90
30534;DHT22;17318;52.390;9.754;2022-11-24T04:20:12;9.30;99.90
30534;DHT22;17318;52.390;9.754;2022-11-24T04:22:38;9.30;99.90
30534;DHT22;17318;52.390;9.754;2022-11-24T04:25:05;9.20;99.90
30534;DHT22;17318;52.390;9.754;2022-11-24T04:27:34;9.20;99.90
30534;DHT22;17318;52.390;9.754;2022-11-24T04:30:00;9.20;99.90
30534;DHT22;17318;52.390;9.754;2022-11-24T04:32:27;9.20;99.90
30534;DHT22;17318;52.390;9.754;2022-11-24T04:34:52;9.20;99.90
30534;DHT22;17318;52.390;9.754;2022-11-24T04:37:18;9.20;99.90
30534;DHT22;17318;52.390;9.754;2022-11-24T04:39:44;9.30;99.90
30534;DHT22;17318;52.390;9.754;2022-11-24T04:42:11;9.30;99.90
30534;DHT22;17318;52.390;9.754;2022-11-24T04:44:37;9.50;99.90
30534;DHT22;17318;52.390;9.754;2022-11-24T04:47:02;9.30;99.90
30534;DHT22;17318;52.390;9.754;2022-11-24T04:49:28;9.30;99.90
30534;DHT22;17318;52.390;9.754;2022-11-24T04:51:55;9.40;99.90
30534;DHT22;17318;52.390;9.754;2022-11-24T04:54:20;9.50;99.90
30534;DHT22;17318;52.390;9.754;2022-11-24T04:56:50;9.40;99.90
30534;DHT22;17318;52.390;9.754;2022-11-24T04:59:16;9.40;99.90
30534;DHT22;17318;52.390;9.754;2022-11-24T05:01:43;9.40;99.90
30534;DHT22;17318;52.390;9.754;2022-11-24T05:04:10;9.40;99.90
30534;DHT22;17318;52.390;9.754;2022-11-24T05:06:36;9.40;99.90
30534;DHT22;17318;52.390;9.754;2022-11-24T05:09:03;9.40;99.90
30534;DHT22;17318;52.390;9.754;2022-11-24T05:11:28;9.50;99.90
30534;DHT22;17318;52.390;9.754;2022-11-24T05:13:54;9.40;99.90
30534;DHT22;17318;52.390;9.754;2022-11-24T05:16:20;9.30;99.90
30534;DHT22;17318;52.390;9.754;2022-11-24T05:18:46;9.40;99.90
30534;DHT22;17318;52.390;9.754;2022-11-24T05:21:11;9.30;99.90
30534;DHT22;17318;52.390;9.754;2022-11-24T05:23:37;9.20;99.90
30534;DHT22;17318;52.390;9.754;2022-11-24T05:26:03;9.20;99.90
30534;DHT22;17318;52.390;9.754;2022-11-24T05:28:29;9.10;99.90
30534;DHT22;17318;52.390;9.754;2022-11-24T05:31:02;9.10;99.90
30534;DHT22;17318;52.390;9.754;2022-11-24T05:33:28;9.00;99.90
30534;DHT22;17318;52.390;9.754;2022-11-24T05:35:58;8.90;99.90
30534;DHT22;17318;52.390;9.754;2022-11-24T05:38:24;8.90;99.90
30534;DHT22;17318;52.390;9.754;2022-11-24T05:40:51;8.90;99.90
30534;DHT22;17318;52.390;9.754;2022-11-24T05:43:17;8.80;99.90
30534;DHT22;17318;52.390;9.754;2022-11-24T05:45:43;8.80;99.90
30534;DHT22;17318;52.390;9.754;2022-11-24T05:48:11;8.70;99.90
30534;DHT22;17318;52.390;9.754;2022-11-24T05:50:38;8.70;99.90
30534;DHT22;17318;52.390;9.754;2022-11-24T05:53:09;8.70;99.90
30534;DHT22;17318;52.390;9.754;2022-11-24T05:55:35;8.70;99.90
30534;DHT22;17318;52.390;9.754;2022-11-24T05:58:03;8.60;99.90
30534;DHT22;17318;52.390;9.754;2022-11-24T06:00:30;8.60;99.90
30534;DHT22;17318;52.390;9.754;2022-11-24T06:02:57;8.50;99.90
30534;DHT22;17318;52.390;9.754;2022-11-24T06:05:23;8.50;99.90
30534;DHT22;17318;52.390;9.754;2022-11-24T06:07:49;8.50;99.90
30534;DHT22;17318;52.390;9.754;2022-11-24T06:10:16;8.50;99.90
30534;DHT22;17318;52.390;9.754;2022-11-24T06:12:42;8.50;99.90
30534;DHT22;17318;52.390;9.754;2022-11-24T06:15:08;8.60;99.90
30534;DHT22;17318;52.390;9.754;2022-11-24T06:17:36;8.60;99.90
30534;DHT22;17318;52.390;9.754;2022-11-24T06:20:01;8.70;99.90
30534;DHT22;17318;52.390;9.754;2022-11-24T06:22:27;8.70;99.90
30534;DHT22;17318;52.390;9.754;2022-11-24T06:24:53;8.70;99.90
30534;DHT22;17318;52.390;9.754;2022-11-24T06:27:19;8.60;99.90
30534;DHT22;17318;52.390;9.754;2022-11-24T06:29:44;8.60;99.90
30534;DHT22;17318;52.390;9.754;2022-11-24T06:32:10;8.60;99.90
30534;DHT22;17318;52.390;9.754;2022-11-24T06:34:36;8.60;99.90
30534;DHT22;17318;52.390;9.754;2022-11-24T06:37:01;8.60;99.90
30534;DHT22;17318;52.390;9.754;2022-11-24T06:39:27;8.70;99.90
30534;DHT22;17318;52.390;9.754;2022-11-24T06:41:53;8.70;99.90
30534;DHT22;17318;52.390;9.754;2022-11-24T06:44:19;8.70;99.90
30534;DHT22;17318;52.390;9.754;2022-11-24T06:46:44;8.70;99.90
30534;DHT22;17318;52.390;9.754;2022-11-24T06:49:10;8.80;99.90
30534;DHT22;17318;52.390;9.754;2022-11-24T06:51:36;8.80;99.90
30534;DHT22;17318;52.390;9.754;2022-11-24T06:54:05;8.80;99.90
30534;DHT22;17318;52.390;9.754;2022-11-24T06:56:31;8.80;99.90
30534;DHT22;17318;52.390;9.754;2022-11-24T06:58:57;8.80;99.90
30534;DHT22;17318;52.390;9.754;2022-11-24T07:01:25;8.90;99.90
30534;DHT22;17318;52.390;9.754;2022-11-24T07:03:52;8.90;99.90
30534;DHT22;17318;52.390;9.754;2022-11-24T07:06:19;8.90;99.90
30534;DHT22;17318;52.390;9.754;2022-11-24T07:08:45;8.90;99.90
30534;DHT22;17318;52.390;9.754;2022-11-24T07:11:14;9.00;99.90
30534;DHT22;17318;52.390;9.754;2022-11-24T07:13:44;9.00;99.90
30534;DHT22;17318;52.390;9.754;2022-11-24T07:18:40;9.00;99.90
30534;DHT22;17318;52.390;9.754;2022-11-24T07:21:06;9.00;99.90
30534;DHT22;17318;52.390;9.754;2022-11-24T07:23:32;9.00;99.90
30534;DHT22;17318;52.390;9.754;2022-11-24T07:25:57;9.10;99.90
30534;DHT22;17318;52.390;9.754;2022-11-24T07:28:23;9.10;99.90
30534;DHT22;17318;52.390;9.754;2022-11-24T07:30:49;9.20;99.90
30534;DHT22;17318;52.390;9.754;2022-11-24T07:33:15;9.10;99.90
30534;DHT22;17318;52.390;9.754;2022-11-24T07:35:44;9.20;99.90
30534;DHT22;17318;52.390;9.754;2022-11-24T07:38:09;9.20;99.90
30534;DHT22;17318;52.390;9.754;2022-11-24T07:40:35;9.20;99.90
30534;DHT22;17318;52.390;9.754;2022-11-24T07:43:01;9.20;99.90
30534;DHT22;17318;52.390;9.754;2022-11-24T07:45:26;9.30;99.90
30534;DHT22;17318;52.390;9.754;2022-11-24T07:47:52;9.30;99.90
30534;DHT22;17318;52.390;9.754;2022-11-24T07:50:19;9.30;99.90
30534;DHT22;17318;52.390;9.754;2022-11-24T07:52:45;9.30;99.90
30534;DHT22;17318;52.390;9.754;2022-11-24T07:55:10;9.40;99.90
30534;DHT22;17318;52.390;9.754;2022-11-24T07:57:36;9.40;99.90
30534;DHT22;17318;52.390;9.754;2022-11-24T08:00:03;9.40;99.90
30534;DHT22;17318;52.390;9.754;2022-11-24T08:02:30;9.50;99.90
30534;DHT22;17318;52.390;9.754;2022-11-24T08:04:56;9.50;99.90
30534;DHT22;17318;52.390;9.754;2022-11-24T08:07:22;9.50;99.90
30534;DHT22;17318;52.390;9.754;2022-11-24T08:09:48;9.50;99.90
30534;DHT22;17318;52.390;9.754;2022-11-24T08:12:15;9.60;99.90
30534;DHT22;17318;52.390;9.754;2022-11-24T08:14:42;9.60;99.90
30534;DHT22;17318;52.390;9.754;2022-11-24T08:17:07;9.70;99.90
30534;DHT22;17318;52.390;9.754;2022-11-24T08:19:33;9.60;99.90
30534;DHT22;17318;52.390;9.754;2022-11-24T08:21:59;9.70;99.90
30534;DHT22;17318;52.390;9.754;2022-11-24T08:24:26;9.70;99.90
30534;DHT22;17318;52.390;9.754;2022-11-24T08:26:52;9.70;99.90
30534;DHT22;17318;52.390;9.754;2022-11-24T08:29:17;9.70;99.90
30534;DHT22;17318;52.390;9.754;2022-11-24T08:31:43;9.70;99.90
30534;DHT22;17318;52.390;9.754;2022-11-24T08:34:09;9.80;99.90
30534;DHT22;17318;52.390;9.754;2022-11-24T08:36:35;9.80;99.90
30534;DHT22;17318;52.390;9.754;2022-11-24T08:39:01;9.80;99.90
30534;DHT22;17318;52.390;9.754;2022-11-24T08:41:27;9.80;99.90
30534;DHT22;17318;52.390;9.754;2022-11-24T08:43:54;9.90;99.90
30534;DHT22;17318;52.390;9.754;2022-11-24T08:46:20;9.90;99.90
30534;DHT22;17318;52.390;9.754;2022-11-24T08:48:50;9.90;99.90
30534;DHT22;17318;52.390;9.754;2022-11-24T08:51:19;10.00;99.90
30534;DHT22;17318;52.390;9.754;2022-11-24T08:53:45;10.00;99.90
30534;DHT22;17318;52.390;9.754;2022-11-24T08:56:12;10.00;99.90
30534;DHT22;17318;52.390;9.754;2022-11-24T08:58:38;10.10;99.90
30534;DHT22;17318;52.390;9.754;2022-11-24T09:01:07;10.10;99.90
30534;DHT22;17318;52.390;9.754;2022-11-24T09:03:36;10.20;99.90
30534;DHT22;17318;52.390;9.754;2022-11-24T09:06:03;10.20;99.90
30534;DHT22;17318;52.390;9.754;2022-11-24T09:08:29;10.30;99.90
30534;DHT22;17318;52.390;9.754;2022-11-24T09:11:04;10.30;99.90
30534;DHT22;17318;52.390;9.754;2022-11-24T09:13:30;10.40;99.90
30534;DHT22;17318;52.390;9.754;2022-11-24T09:15:55;10.40;99.90
30534;DHT22;17318;52.390;9.754;2022-11-24T09:18:21;10.40;99.90
30534;DHT22;17318;52.390;9.754;2022-11-24T09:20:48;10.50;99.90
30534;DHT22;17318;52.390;9.754;2022-11-24T09:23:14;10.60;99.90
30534;DHT22;17318;52.390;9.754;2022-11-24T09:25:39;10.70;99.90
30534;DHT22;17318;52.390;9.754;2022-11-24T09:28:05;10.90;99.90
30534;DHT22;17318;52.390;9.754;2022-11-24T09:30:31;10.90;99.90
30534;DHT22;17318;52.390;9.754;2022-11-24T09:32:56;11.10;99.90
30534;DHT22;17318;52.390;9.754;2022-11-24T09:35:23;11.10;99.90
30534;DHT22;17318;52.390;9.754;2022-11-24T09:37:49;11.00;99.90
30534;DHT22;17318;52.390;9.754;2022-11-24T09:40:16;11.10;99.90
30534;DHT22;17318;52.390;9.754;2022-11-24T09:43:40;11.20;99.90
30534;DHT22;17318;52.390;9.754;2022-11-24T09:48:34;11.20;99.90
30534;DHT22;17318;52.390;9.754;2022-11-24T09:51:02;11.30;99.90
30534;DHT22;17318;52.390;9.754;2022-11-24T09:53:55;11.30;99.80
30534;DHT22;17318;52.390;9.754;2022-11-24T09:56:26;11.30;99.70
30534;DHT22;17318;52.390;9.754;2022-11-24T10:01:41;11.40;99.70
30534;DHT22;17318;52.390;9.754;2022-11-24T10:04:24;11.50;99.70
30534;DHT22;17318;52.390;9.754;2022-11-24T10:09:53;11.50;99.70
30534;DHT22;17318;52.390;9.754;2022-11-24T10:21:11;11.60;99.70
30534;DHT22;17318;52.390;9.754;2022-11-24T10:26:37;11.70;99.70
30534;DHT22;17318;52.390;9.754;2022-11-24T10:31:55;11.80;99.50
30534;DHT22;17318;52.390;9.754;2022-11-24T10:34:38;11.80;99.30
30534;DHT22;17318;52.390;9.754;2022-11-24T10:37:17;12.00;99.50
30534;DHT22;17318;52.390;9.754;2022-11-24T10:42:33;12.10;99.30
30534;DHT22;17318;52.390;9.754;2022-11-24T10:45:11;12.20;99.20
30534;DHT22;17318;52.390;9.754;2022-11-24T10:47:37;12.30;99.00
30534;DHT22;17318;52.390;9.754;2022-11-24T10:52:49;12.40;98.90
30534;DHT22;17318;52.390;9.754;2022-11-24T10:55:15;12.60;98.80
30534;DHT22;17318;52.390;9.754;2022-11-24T10:57:41;12.60;98.40
30534;DHT22;17318;52.390;9.754;2022-11-24T11:02:43;12.90;98.10
30534;DHT22;17318;52.390;9.754;2022-11-24T11:10:45;13.10;97.80
30534;DHT22;17318;52.390;9.754;2022-11-24T11:13:24;13.10;97.50
30534;DHT22;17318;52.390;9.754;2022-11-24T11:15:50;13.10;97.60
30534;DHT22;17318;52.390;9.754;2022-11-24T11:18:17;13.20;97.20
30534;DHT22;17318;52.390;9.754;2022-11-24T11:20:54;13.60;97.00
30534;DHT22;17318;52.390;9.754;2022-11-24T11:23:32;13.60;96.70
30534;DHT22;17318;52.390;9.754;2022-11-24T11:31:33;13.40;96.70
30534;DHT22;17318;52.390;9.754;2022-11-24T11:36:37;13.30;96.70
30534;DHT22;17318;52.390;9.754;2022-11-24T11:39:04;13.10;96.90
30534;DHT22;17318;52.390;9.754;2022-11-24T11:41:35;13.10;96.90
30534;DHT22;17318;52.390;9.754;2022-11-24T11:47:04;13.10;97.00
30534;DHT22;17318;52.390;9.754;2022-11-24T11:49:34;12.90;97.00
30534;DHT22;17318;52.390;9.754;2022-11-24T11:52:13;12.80;96.80
30534;DHT22;17318;52.390;9.754;2022-11-24T12:00:19;13.00;97.10
30534;DHT22;17318;52.390;9.754;2022-11-24T12:10:56;13.00;96.70
30534;DHT22;17318;52.390;9.754;2022-11-24T12:13:58;13.00;96.50
30534;DHT22;17318;52.390;9.754;2022-11-24T12:16:44;13.10;96.60
30534;DHT22;17318;52.390;9.754;2022-11-24T12:19:38;13.00;96.60
30534;DHT22;17318;52.390;9.754;2022-11-24T12:22:08;12.90;96.60
30534;DHT22;17318;52.390;9.754;2022-11-24T12:28:13;12.90;96.50
30534;DHT22;17318;52.390;9.754;2022-11-24T12:30:18;12.70;96.50
30534;DHT22;17318;52.390;9.754;2022-11-24T12:33:19;12.60;96.90
30534;DHT22;17318;52.390;9.754;2022-11-24T12:36:01;12.60;97.00
30534;DHT22;17318;52.390;9.754;2022-11-24T12:43:56;12.70;96.90
30534;DHT22;17318;52.390;9.754;2022-11-24T12:49:44;12.90;96.90
30534;DHT22;17318;52.390;9.754;2022-11-24T12:52:27;12.90;96.70
30534;DHT22;17318;52.390;9.754;2022-11-24T12:54:55;13.00;96.60
30534;DHT22;17318;52.390;9.754;2022-11-24T13:00:22;12.80;96.60
30534;DHT22;17318;52.390;9.754;2022-11-24T13:03:13;12.80;96.50
30534;DHT22;17318;52.390;9.754;2022-11-24T13:08:18;12.80;96.70
30534;DHT22;17318;52.390;9.754;2022-11-24T13:10:45;12.70;96.50
30534;DHT22;17318;52.390;9.754;2022-11-24T13:13:12;12.60;96.50
30534;DHT22;17318;52.390;9.754;2022-11-24T13:21:33;12.60;96.80
30534;DHT22;17318;52.390;9.754;2022-11-24T13:42:23;12.50;97.40
30534;DHT22;17318;52.390;9.754;2022-11-24T13:45:03;12.50;97.30
30534;DHT22;17318;52.390;9.754;2022-11-24T13:49:59;12.50;97.20
30534;DHT22;17318;52.390;9.754;2022-11-24T13:52:49;12.40;97.20
30534;DHT22;17318;52.390;9.754;2022-11-24T13:55:20;12.40;97.20
30534;DHT22;17318;52.390;9.754;2022-11-24T13:57:59;12.20;97.40
30534;DHT22;17318;52.390;9.754;2022-11-24T14:00:34;12.30;97.50
30534;DHT22;17318;52.390;9.754;2022-11-24T14:03:05;12.30;97.60
30534;DHT22;17318;52.390;9.754;2022-11-24T14:05:39;12.30;97.40
30534;DHT22;17318;52.390;9.754;2022-11-24T14:08:05;12.20;97.50
30534;DHT22;17318;52.390;9.754;2022-11-24T14:10:35;12.20;97.60
30534;DHT22;17318;52.390;9.754;2022-11-24T14:16:04;12.10;97.60
30534;DHT22;17318;52.390;9.754;2022-11-24T14:18:33;12.20;97.60
30534;DHT22;17318;52.390;9.754;2022-11-24T14:20:59;12.20;97.50
30534;DHT22;17318;52.390;9.754;2022-11-24T14:23:25;12.20;97.60
30534;DHT22;17318;52.390;9.754;2022-11-24T14:25:52;12.30;97.60
30534;DHT22;17318;52.390;9.754;2022-11-24T14:28:25;12.30;97.60
30534;DHT22;17318;52.390;9.754;2022-11-24T14:31:06;12.20;97.60
30534;DHT22;17318;52.390;9.754;2022-11-24T14:33:32;12.10;97.70
30534;DHT22;17318;52.390;9.754;2022-11-24T14:35:58;12.10;97.70
30534;DHT22;17318;52.390;9.754;2022-11-24T14:38:24;12.10;97.80
30534;DHT22;17318;52.390;9.754;2022-11-24T14:40:53;12.00;97.80
30534;DHT22;17318;52.390;9.754;2022-11-24T14:45:52;12.10;97.70
30534;DHT22;17318;52.390;9.754;2022-11-24T14:48:26;12.20;97.80
30534;DHT22;17318;52.390;9.754;2022-11-24T14:50:53;12.10;97.70
30534;DHT22;17318;52.390;9.754;2022-11-24T14:53:21;12.10;97.80
30534;DHT22;17318;52.390;9.754;2022-11-24T14:56:06;12.10;97.80
30534;DHT22;17318;52.390;9.754;2022-11-24T14:58:32;12.20;97.80
30534;DHT22;17318;52.390;9.754;2022-11-24T15:03:43;12.10;97.80
30534;DHT22;17318;52.390;9.754;2022-11-24T15:06:17;12.20;97.80
30534;DHT22;17318;52.390;9.754;2022-11-24T15:08:47;12.10;97.90
30534;DHT22;17318;52.390;9.754;2022-11-24T15:11:14;12.10;97.90
30534;DHT22;17318;52.390;9.754;2022-11-24T15:13:52;12.00;97.90
30534;DHT22;17318;52.390;9.754;2022-11-24T15:16:19;12.00;98.00
30534;DHT22;17318;52.390;9.754;2022-11-24T15:18:48;12.00;98.00
30534;DHT22;17318;52.390;9.754;2022-11-24T15:21:32;12.00;98.00
30534;DHT22;17318;52.390;9.754;2022-11-24T15:24:15;11.90;98.10
30534;DHT22;17318;52.390;9.754;2022-11-24T15:26:42;12.00;98.10
30534;DHT22;17318;52.390;9.754;2022-11-24T15:29:08;11.90;98.20
30534;DHT22;17318;52.390;9.754;2022-11-24T15:31:34;11.90;98.20
30534;DHT22;17318;52.390;9.754;2022-11-24T15:34:00;12.00;98.20
30534;DHT22;17318;52.390;9.754;2022-11-24T15:36:26;12.00;98.20
30534;DHT22;17318;52.390;9.754;2022-11-24T15:38:52;12.00;98.30
30534;DHT22;17318;52.390;9.754;2022-11-24T15:41:27;11.90;98.20
30534;DHT22;17318;52.390;9.754;2022-11-24T15:43:53;11.90;98.30
30534;DHT22;17318;52.390;9.754;2022-11-24T15:46:29;11.90;98.30
30534;DHT22;17318;52.390;9.754;2022-11-24T15:49:02;11.90;98.30
30534;DHT22;17318;52.390;9.754;2022-11-24T15:51:28;11.90;98.80
30534;DHT22;17318;52.390;9.754;2022-11-24T15:53:55;11.90;98.50
30534;DHT22;17318;52.390;9.754;2022-11-24T15:56:34;11.80;98.30
30534;DHT22;17318;52.390;9.754;2022-11-24T15:59:01;11.80;98.30
30534;DHT22;17318;52.390;9.754;2022-11-24T16:01:31;12.00;98.40
30534;DHT22;17318;52.390;9.754;2022-11-24T16:03:58;11.80;98.40
30534;DHT22;17318;52.390;9.754;2022-11-24T16:06:23;11.90;98.50
30534;DHT22;17318;52.390;9.754;2022-11-24T16:08:49;11.80;98.40
30534;DHT22;17318;52.390;9.754;2022-11-24T16:11:15;11.80;98.50
30534;DHT22;17318;52.390;9.754;2022-11-24T16:13:41;11.80;98.50
30534;DHT22;17318;52.390;9.754;2022-11-24T16:16:08;11.80;98.80
30534;DHT22;17318;52.390;9.754;2022-11-24T16:18:33;11.80;98.60
30534;DHT22;17318;52.390;9.754;2022-11-24T16:21:04;11.80;98.60
30534;DHT22;17318;52.390;9.754;2022-11-24T16:23:29;11.80;98.60
30534;DHT22;17318;52.390;9.754;2022-11-24T16:25:55;11.80;98.60
30534;DHT22;17318;52.390;9.754;2022-11-24T16:28:21;11.80;98.60
30534;DHT22;17318;52.390;9.754;2022-11-24T16:30:50;11.80;98.60
30534;DHT22;17318;52.390;9.754;2022-11-24T16:33:16;11.80;98.60
30534;DHT22;17318;52.390;9.754;2022-11-24T16:35:45;11.70;98.70
30534;DHT22;17318;52.390;9.754;2022-11-24T16:38:15;11.70;98.70
30534;DHT22;17318;52.390;9.754;2022-11-24T16:40:41;11.70;98.70
30534;DHT22;17318;52.390;9.754;2022-11-24T16:43:07;11.70;98.70
30534;DHT22;17318;52.390;9.754;2022-11-24T16:45:33;11.80;98.70
30534;DHT22;17318;52.390;9.754;2022-11-24T16:47:59;11.80;98.70
30534;DHT22;17318;52.390;9.754;2022-11-24T16:50:25;11.80;98.70
30534;DHT22;17318;52.390;9.754;2022-11-24T16:52:51;11.60;98.70
30534;DHT22;17318;52.390;9.754;2022-11-24T16:55:17;11.70;98.80
30534;DHT22;17318;52.390;9.754;2022-11-24T16:57:42;11.70;98.70
30534;DHT22;17318;52.390;9.754;2022-11-24T17:00:09;11.70;98.70
30534;DHT22;17318;52.390;9.754;2022-11-24T17:02:36;11.70;98.70
30534;DHT22;17318;52.390;9.754;2022-11-24T17:05:01;11.70;98.80
30534;DHT22;17318;52.390;9.754;2022-11-24T17:07:27;11.80;98.90
30534;DHT22;17318;52.390;9.754;2022-11-24T17:09:53;11.70;98.70
30534;DHT22;17318;52.390;9.754;2022-11-24T17:12:18;11.70;98.70
30534;DHT22;17318;52.390;9.754;2022-11-24T17:14:44;11.70;98.70
30534;DHT22;17318;52.390;9.754;2022-11-24T17:17:10;11.70;98.70
30534;DHT22;17318;52.390;9.754;2022-11-24T17:19:36;11.70;98.70
30534;DHT22;17318;52.390;9.754;2022-11-24T17:22:02;11.80;98.80
30534;DHT22;17318;52.390;9.754;2022-11-24T17:24:28;11.70;98.70
30534;DHT22;17318;52.390;9.754;2022-11-24T17:26:54;11.70;98.70
30534;DHT22;17318;52.390;9.754;2022-11-24T17:29:19;11.70;98.80
30534;DHT22;17318;52.390;9.754;2022-11-24T17:31:45;11.70;98.80
30534;DHT22;17318;52.390;9.754;2022-11-24T17:34:12;11.60;98.80
30534;DHT22;17318;52.390;9.754;2022-11-24T17:36:37;11.70;98.90
30534;DHT22;17318;52.390;9.754;2022-11-24T17:39:05;11.60;98.80
30534;DHT22;17318;52.390;9.754;2022-11-24T17:41:31;11.60;98.90
30534;DHT22;17318;52.390;9.754;2022-11-24T17:43:57;11.50;98.90
30534;DHT22;17318;52.390;9.754;2022-11-24T17:46:26;11.50;99.00
30534;DHT22;17318;52.390;9.754;2022-11-24T17:48:52;11.40;98.90